Time;durP1;ratioP1;P1;durP2;ratioP2;P2;SDS_P1;SDS_P2;PMS_P1;PMS_P2;Temp;Humidity;BMP_temperature;BMP_pressure;BME280_temperature;BME280_humidity;BME280_pressure;Samples;Min_cycle;Max_cycle;Signal;HPM_P1;HPM_P2
2021/11/11 00:02:02;;;;;;;6.32;3.85;;;1.30;99.90;;;;;;5061764;28;20045;-66
2021/11/11 00:04:29;;;;;;;8.40;4.30;;;1.20;99.90;;;;;;5060247;28;20041;-66
2021/11/11 00:06:59;;;;;;;9.73;4.53;;;1.30;99.90;;;;;;5058325;28;20044;-66
2021/11/11 00:09:26;;;;;;;8.30;4.00;;;1.30;99.90;;;;;;5061219;28;20044;-66
2021/11/11 00:11:52;;;;;;;10.90;4.78;;;1.30;99.90;;;;;;5062543;28;20036;-66
2021/11/11 00:14:18;;;;;;;12.23;4.07;;;1.30;99.90;;;;;;5058250;28;20095;-66
2021/11/11 00:16:44;;;;;;;8.77;4.22;;;1.30;99.90;;;;;;5059785;28;20033;-66
2021/11/11 00:19:09;;;;;;;9.13;4.32;;;1.30;99.90;;;;;;5048385;28;20597;-66
2021/11/11 00:21:35;;;;;;;7.97;3.78;;;1.30;99.90;;;;;;5048774;28;20029;-66
2021/11/11 00:24:01;;;;;;;9.02;4.10;;;1.30;99.90;;;;;;5047534;28;20033;-66
2021/11/11 00:26:28;;;;;;;10.25;4.22;;;1.30;99.90;;;;;;5048260;28;20415;-66
2021/11/11 00:28:57;;;;;;;8.80;4.50;;;1.30;99.90;;;;;;5046769;28;20033;-66
2021/11/11 00:31:23;;;;;;;11.15;5.45;;;1.30;99.90;;;;;;5049091;28;20033;-66
2021/11/11 00:33:52;;;;;;;10.45;4.68;;;1.30;99.90;;;;;;5049965;28;20120;-66
2021/11/11 00:36:18;;;;;;;7.75;4.50;;;1.30;99.90;;;;;;5048365;28;20053;-66
2021/11/11 00:38:44;;;;;;;10.27;4.68;;;1.30;99.90;;;;;;5049132;28;20033;-66
2021/11/11 00:41:10;;;;;;;7.32;3.90;;;1.20;99.90;;;;;;5050121;28;20040;-66
2021/11/11 00:43:37;;;;;;;7.47;3.92;;;1.20;99.90;;;;;;5050130;28;20058;-66
2021/11/11 00:46:04;;;;;;;12.77;4.80;;;1.20;99.90;;;;;;5047857;28;20144;-66
2021/11/11 00:48:29;;;;;;;8.95;5.28;;;1.30;99.90;;;;;;5049898;28;20437;-66
2021/11/11 00:51:00;;;;;;;11.32;5.07;;;1.20;99.90;;;;;;5049724;28;20048;-66
2021/11/11 00:53:32;;;;;;;12.82;5.05;;;1.20;99.90;;;;;;5049154;28;20611;-66
2021/11/11 00:56:00;;;;;;;10.25;5.10;;;1.20;99.90;;;;;;5047793;28;20052;-66
2021/11/11 00:58:26;;;;;;;10.07;5.00;;;1.20;99.90;;;;;;5048453;28;20033;-66
2021/11/11 01:00:52;;;;;;;9.30;4.72;;;1.10;99.90;;;;;;5044095;28;20728;-66
2021/11/11 01:03:19;;;;;;;9.63;4.60;;;1.10;99.90;;;;;;5058852;28;20037;-66
2021/11/11 01:05:49;;;;;;;10.10;4.55;;;1.20;99.90;;;;;;5046797;28;20053;-66
2021/11/11 01:08:15;;;;;;;8.75;5.22;;;1.10;99.90;;;;;;5047951;28;20041;-66
2021/11/11 01:10:40;;;;;;;10.30;5.05;;;1.10;99.90;;;;;;5049085;28;20040;-66
2021/11/11 01:13:09;;;;;;;7.65;4.32;;;1.10;99.90;;;;;;5049006;28;20958;-66
2021/11/11 01:15:35;;;;;;;11.02;5.05;;;1.10;99.90;;;;;;5045134;28;20065;-66
2021/11/11 01:18:05;;;;;;;6.78;3.95;;;1.10;99.90;;;;;;5047535;28;20060;-66
2021/11/11 01:20:31;;;;;;;7.68;5.13;;;1.10;99.90;;;;;;5049032;28;20386;-66
2021/11/11 01:22:57;;;;;;;10.38;4.68;;;1.10;99.90;;;;;;5048632;28;20127;-66
2021/11/11 01:25:25;;;;;;;10.32;4.30;;;1.10;99.90;;;;;;5047774;28;20064;-66
2021/11/11 01:27:51;;;;;;;8.77;5.32;;;1.10;99.90;;;;;;5047577;28;20124;-66
2021/11/11 01:30:17;;;;;;;7.53;4.88;;;1.10;99.90;;;;;;5047308;28;20150;-66
2021/11/11 01:32:44;;;;;;;9.15;4.60;;;1.00;99.90;;;;;;5048959;28;20069;-66
2021/11/11 01:35:12;;;;;;;10.43;4.60;;;1.00;99.90;;;;;;5048775;28;20103;-66
2021/11/11 01:37:38;;;;;;;11.85;5.80;;;0.90;99.90;;;;;;5046875;28;20048;-65
2021/11/11 01:40:06;;;;;;;10.57;5.38;;;0.90;99.90;;;;;;5048551;28;20033;-66
2021/11/11 01:42:44;;;;;;;9.45;5.15;;;0.90;99.90;;;;;;5048777;28;20120;-66
2021/11/11 01:45:09;;;;;;;13.75;4.95;;;0.90;99.90;;;;;;5048613;28;20033;-66
2021/11/11 01:47:36;;;;;;;13.25;6.15;;;0.90;99.90;;;;;;5047618;28;20043;-65
2021/11/11 01:50:03;;;;;;;15.93;7.18;;;0.90;99.90;;;;;;5047598;28;20087;-66
2021/11/11 01:52:29;;;;;;;13.20;6.50;;;1.00;99.90;;;;;;5048104;28;20040;-66
2021/11/11 01:54:55;;;;;;;13.35;5.88;;;1.10;99.90;;;;;;5046830;28;20037;-66
2021/11/11 01:57:20;;;;;;;15.90;5.70;;;1.10;99.90;;;;;;5047101;28;20507;-66
2021/11/11 01:59:46;;;;;;;16.48;6.43;;;1.10;99.90;;;;;;5047979;28;20036;-65
2021/11/11 02:02:12;;;;;;;10.43;5.70;;;1.10;99.90;;;;;;5046464;28;20132;-65
2021/11/11 02:04:37;;;;;;;9.10;5.03;;;1.00;99.90;;;;;;5045858;28;20094;-65
2021/11/11 02:07:03;;;;;;;7.70;4.72;;;1.00;99.90;;;;;;5046303;28;20087;-66
2021/11/11 02:09:29;;;;;;;9.55;5.38;;;1.00;99.90;;;;;;5045752;28;20072;-66
2021/11/11 02:11:55;;;;;;;9.27;5.55;;;1.00;99.90;;;;;;5045330;28;20037;-66
2021/11/11 02:14:20;;;;;;;10.20;5.40;;;1.00;99.90;;;;;;5043363;28;20056;-66
2021/11/11 02:16:46;;;;;;;12.05;6.25;;;1.00;99.90;;;;;;5045953;28;20041;-66
2021/11/11 02:19:11;;;;;;;8.88;5.15;;;1.00;99.90;;;;;;5046484;28;20052;-66
2021/11/11 02:21:38;;;;;;;12.13;5.15;;;0.90;99.90;;;;;;5047772;28;20041;-66
2021/11/11 02:24:05;;;;;;;9.48;4.90;;;0.90;99.90;;;;;;5046217;28;21042;-66
2021/11/11 02:26:31;;;;;;;11.80;5.03;;;0.80;99.90;;;;;;5046254;28;20053;-66
2021/11/11 02:28:59;;;;;;;12.38;5.47;;;0.80;99.90;;;;;;5046426;28;20062;-66
2021/11/11 02:31:25;;;;;;;13.27;5.28;;;0.70;99.90;;;;;;5046260;28;20111;-65
2021/11/11 02:33:53;;;;;;;13.85;5.45;;;0.70;99.90;;;;;;5046782;28;20082;-66
2021/11/11 02:36:19;;;;;;;10.00;5.35;;;0.70;99.90;;;;;;5046120;28;20067;-66
2021/11/11 02:38:44;;;;;;;14.00;6.05;;;0.70;99.90;;;;;;5046052;28;20120;-66
2021/11/11 02:41:14;;;;;;;12.65;5.70;;;0.80;99.90;;;;;;5047383;28;20405;-66
2021/11/11 02:43:39;;;;;;;12.40;5.40;;;0.80;99.90;;;;;;5032069;28;20048;-66
2021/11/11 02:46:05;;;;;;;13.45;6.10;;;0.90;99.90;;;;;;5045142;28;20049;-66
2021/11/11 02:48:31;;;;;;;11.27;5.75;;;0.80;99.90;;;;;;5049385;28;20045;-66
2021/11/11 02:50:56;;;;;;;14.68;6.80;;;0.80;99.90;;;;;;5047272;28;20036;-66
2021/11/11 02:53:23;;;;;;;11.18;5.75;;;0.80;99.90;;;;;;5048025;28;20041;-66
2021/11/11 02:55:49;;;;;;;12.32;5.82;;;0.80;99.90;;;;;;5045296;28;20076;-65
2021/11/11 02:58:15;;;;;;;13.52;7.07;;;0.70;99.90;;;;;;5046625;28;20412;-66
2021/11/11 03:00:46;;;;;;;11.57;5.68;;;0.70;99.90;;;;;;5044778;28;20029;-66
2021/11/11 03:03:11;;;;;;;16.23;6.38;;;0.70;99.90;;;;;;5043058;28;20029;-66
2021/11/11 03:05:37;;;;;;;15.60;5.80;;;0.70;99.90;;;;;;5044055;28;20048;-66
2021/11/11 03:08:04;;;;;;;12.57;5.82;;;0.70;99.90;;;;;;5045312;28;20044;-66
2021/11/11 03:10:31;;;;;;;12.93;5.88;;;0.70;99.90;;;;;;5046604;28;20033;-69
2021/11/11 03:13:00;;;;;;;11.40;5.40;;;0.70;99.90;;;;;;5047149;28;20039;-66
2021/11/11 03:15:28;;;;;;;14.07;5.60;;;0.60;99.90;;;;;;5045422;28;20048;-66
2021/11/11 03:17:53;;;;;;;14.75;6.03;;;0.60;99.90;;;;;;5046950;28;20041;-66
2021/11/11 03:20:20;;;;;;;10.95;5.95;;;0.60;99.90;;;;;;5047139;28;20122;-66
2021/11/11 03:22:47;;;;;;;12.80;6.28;;;0.60;99.90;;;;;;5047648;28;20496;-66
2021/11/11 03:25:19;;;;;;;14.05;6.55;;;0.60;99.90;;;;;;5024587;28;20047;-66
2021/11/11 03:27:45;;;;;;;11.57;5.78;;;0.60;99.90;;;;;;5045163;28;20037;-66
2021/11/11 03:30:15;;;;;;;12.75;5.35;;;0.60;99.90;;;;;;5042399;28;20060;-66
2021/11/11 03:32:41;;;;;;;15.80;6.25;;;0.50;99.90;;;;;;5047073;28;20711;-66
2021/11/11 03:35:07;;;;;;;17.55;7.00;;;0.50;99.90;;;;;;5046676;28;20050;-66
2021/11/11 03:37:33;;;;;;;15.35;7.30;;;0.50;99.90;;;;;;5043883;28;20052;-63
2021/11/11 03:40:00;;;;;;;10.23;5.60;;;0.50;99.90;;;;;;5046081;28;20163;-64
2021/11/11 03:42:26;;;;;;;15.68;6.70;;;0.50;99.90;;;;;;5047048;28;20045;-65
2021/11/11 03:44:51;;;;;;;13.57;6.40;;;0.40;99.90;;;;;;5046981;28;20039;-61
2021/11/11 03:47:17;;;;;;;14.60;6.43;;;0.40;99.90;;;;;;5043374;28;20390;-64
2021/11/11 03:49:43;;;;;;;9.77;5.93;;;0.40;99.90;;;;;;5044928;28;20045;-64
2021/11/11 03:52:09;;;;;;;11.85;6.50;;;0.50;99.90;;;;;;5046615;28;20037;-65
2021/11/11 03:54:36;;;;;;;10.02;5.28;;;0.50;99.90;;;;;;5049672;28;20045;-65
2021/11/11 03:57:02;;;;;;;13.82;6.22;;;0.50;99.90;;;;;;5049063;28;20040;-65
2021/11/11 03:59:30;;;;;;;15.75;7.18;;;0.50;99.90;;;;;;5045602;28;20622;-65
2021/11/11 04:01:56;;;;;;;16.63;7.43;;;0.40;99.90;;;;;;5046659;28;20123;-65
2021/11/11 04:04:22;;;;;;;14.32;6.47;;;0.40;99.90;;;;;;5045448;28;20635;-66
2021/11/11 04:06:48;;;;;;;14.07;6.10;;;0.40;99.90;;;;;;5047451;28;20071;-65
2021/11/11 04:09:14;;;;;;;13.73;5.80;;;0.50;99.90;;;;;;5047795;28;20075;-65
2021/11/11 04:11:41;;;;;;;12.13;5.93;;;0.60;99.90;;;;;;5047927;28;20037;-65
2021/11/11 04:14:07;;;;;;;10.45;5.35;;;0.60;99.90;;;;;;5048705;28;20528;-65
2021/11/11 04:16:33;;;;;;;16.80;5.28;;;0.60;99.90;;;;;;5048360;28;20045;-65
2021/11/11 04:18:59;;;;;;;12.52;4.65;;;0.60;99.90;;;;;;5047430;28;20033;-65
2021/11/11 04:21:25;;;;;;;12.35;5.20;;;0.50;99.90;;;;;;5050540;28;20087;-65
2021/11/11 04:23:52;;;;;;;10.32;4.47;;;0.50;99.90;;;;;;5049633;28;20404;-65
2021/11/11 04:26:26;;;;;;;11.43;5.07;;;0.50;99.90;;;;;;5047252;28;20072;-65
2021/11/11 04:31:27;;;;;;;12.48;5.05;;;0.50;99.90;;;;;;5043668;28;20075;-66
2021/11/11 04:33:57;;;;;;;11.88;5.93;;;0.40;99.90;;;;;;5045893;28;20049;-63
2021/11/11 04:44:11;;;;;;;11.15;5.20;;;0.30;99.90;;;;;;5045773;28;20052;-65
2021/11/11 05:02:57;;;;;;;12.73;5.88;;;0.40;99.90;;;;;;5049195;28;20098;-64
2021/11/11 05:05:23;;;;;;;10.80;5.22;;;0.40;99.90;;;;;;5048498;28;20065;-64
2021/11/11 05:07:49;;;;;;;9.07;4.45;;;0.40;99.90;;;;;;5045437;28;20122;-64
2021/11/11 05:10:15;;;;;;;11.80;5.30;;;0.30;99.90;;;;;;5046446;28;20091;-64
2021/11/11 05:12:41;;;;;;;10.10;4.65;;;0.30;99.90;;;;;;5043820;28;20033;-64
2021/11/11 05:15:07;;;;;;;11.48;5.15;;;0.30;99.90;;;;;;5045100;28;20473;-64
2021/11/11 05:17:33;;;;;;;10.27;4.97;;;0.30;99.90;;;;;;5043704;28;20182;-64
2021/11/11 05:19:59;;;;;;;13.95;5.07;;;0.30;99.90;;;;;;5045459;28;20089;-64
2021/11/11 05:22:24;;;;;;;13.43;5.38;;;0.30;99.90;;;;;;5044287;28;20041;-64
2021/11/11 05:24:50;;;;;;;9.70;4.95;;;0.30;99.90;;;;;;5043653;28;20168;-64
2021/11/11 05:27:19;;;;;;;11.90;5.82;;;0.30;99.90;;;;;;5044664;28;20045;-64
2021/11/11 05:29:45;;;;;;;13.23;5.07;;;0.20;99.90;;;;;;5045804;28;20396;-64
2021/11/11 05:32:11;;;;;;;11.18;4.53;;;0.20;99.90;;;;;;5045344;28;20045;-64
2021/11/11 05:34:37;;;;;;;14.45;4.95;;;0.30;99.90;;;;;;5047453;28;20048;-64
2021/11/11 05:37:04;;;;;;;12.70;4.90;;;0.20;99.90;;;;;;5045437;28;20045;-64
2021/11/11 05:39:30;;;;;;;8.30;4.50;;;0.20;99.90;;;;;;5042463;28;20037;-64
2021/11/11 05:41:56;;;;;;;13.63;5.57;;;0.20;99.90;;;;;;5049385;28;20546;-64
2021/11/11 05:44:22;;;;;;;11.63;4.70;;;0.20;99.90;;;;;;5047485;28;20041;-66
2021/11/11 05:46:47;;;;;;;13.68;4.18;;;0.30;99.90;;;;;;5045292;28;20047;-64
2021/11/11 05:49:13;;;;;;;12.73;4.85;;;0.30;99.90;;;;;;5046797;28;20041;-65
2021/11/11 05:51:39;;;;;;;11.50;4.32;;;0.20;99.90;;;;;;5047551;28;20041;-64
2021/11/11 05:54:05;;;;;;;10.98;5.57;;;0.20;99.90;;;;;;5045952;28;20041;-64
2021/11/11 05:56:30;;;;;;;10.52;4.78;;;0.30;99.90;;;;;;5044622;28;20095;-63
2021/11/11 05:58:56;;;;;;;11.48;5.03;;;0.20;99.90;;;;;;5043933;28;20048;-65
2021/11/11 06:01:22;;;;;;;13.00;4.88;;;0.20;99.90;;;;;;5042263;28;20505;-64
2021/11/11 06:03:47;;;;;;;15.43;4.55;;;0.20;99.90;;;;;;5043934;28;20568;-64
2021/11/11 06:06:13;;;;;;;10.85;4.97;;;0.20;99.90;;;;;;5044702;28;20044;-64
2021/11/11 06:08:39;;;;;;;8.85;4.53;;;0.20;99.90;;;;;;5043592;28;20073;-64
2021/11/11 06:11:04;;;;;;;10.98;4.30;;;0.20;99.90;;;;;;5043432;28;20420;-64
2021/11/11 06:13:30;;;;;;;11.68;4.20;;;0.10;99.90;;;;;;5043750;28;20075;-64
2021/11/11 06:15:55;;;;;;;12.90;5.13;;;0.10;99.90;;;;;;5042376;28;20493;-64
2021/11/11 06:18:21;;;;;;;9.35;4.43;;;0.20;99.90;;;;;;5044641;28;20041;-64
2021/11/11 06:20:56;;;;;;;7.75;4.00;;;0.10;99.90;;;;;;5047105;28;20496;-64
2021/11/11 06:23:22;;;;;;;7.80;4.13;;;0.00;99.90;;;;;;5046779;28;20045;-64
2021/11/11 06:25:47;;;;;;;12.30;4.95;;;0.00;99.90;;;;;;5044589;28;20121;-64
2021/11/11 06:28:13;;;;;;;9.45;4.35;;;0.10;99.90;;;;;;5046168;28;20071;-65
2021/11/11 06:30:39;;;;;;;40.80;19.25;;;0.10;99.90;;;;;;5046660;28;20044;-65
2021/11/11 06:33:04;;;;;;;15.90;7.47;;;0.20;99.90;;;;;;5047108;28;20040;-65
2021/11/11 06:35:33;;;;;;;66.10;28.02;;;0.20;99.90;;;;;;5045702;28;20029;-64
2021/11/11 06:38:00;;;;;;;44.15;18.88;;;0.20;99.90;;;;;;5045887;28;20408;-65
2021/11/11 06:40:28;;;;;;;32.55;13.68;;;0.30;99.90;;;;;;5046267;28;20145;-66
2021/11/11 06:42:56;;;;;;;18.42;7.28;;;0.30;99.90;;;;;;5047256;28;20052;-66
2021/11/11 06:45:24;;;;;;;65.93;31.10;;;0.30;99.90;;;;;;5046505;28;20045;-65
2021/11/11 06:47:50;;;;;;;22.80;10.55;;;0.30;99.90;;;;;;5044977;28;20052;-66
2021/11/11 06:50:16;;;;;;;40.33;19.17;;;0.30;99.90;;;;;;5047669;28;20037;-66
2021/11/11 06:52:41;;;;;;;101.60;38.67;;;0.30;99.90;;;;;;5047440;28;20048;-64
2021/11/11 06:55:08;;;;;;;25.73;10.52;;;0.40;99.90;;;;;;5044244;28;21065;-64
2021/11/11 06:57:35;;;;;;;14.05;6.15;;;0.30;99.90;;;;;;5045094;28;20048;-64
2021/11/11 07:00:04;;;;;;;11.02;5.00;;;0.30;99.90;;;;;;5042652;28;20477;-65
2021/11/11 07:02:30;;;;;;;12.15;4.55;;;0.40;99.90;;;;;;5042896;28;20543;-64
2021/11/11 07:04:55;;;;;;;16.90;4.10;;;0.40;99.90;;;;;;5045578;28;20052;-64
2021/11/11 07:07:21;;;;;;;9.82;4.25;;;0.30;99.90;;;;;;5045536;28;20052;-64
2021/11/11 07:09:47;;;;;;;7.85;3.45;;;0.40;99.90;;;;;;5044059;28;20064;-64
2021/11/11 07:12:12;;;;;;;10.48;4.28;;;0.50;99.90;;;;;;5042439;28;20119;-66
2021/11/11 07:14:41;;;;;;;12.00;4.45;;;0.50;99.90;;;;;;5044657;28;20607;-64
2021/11/11 07:17:07;;;;;;;11.07;4.40;;;0.50;99.90;;;;;;5044456;28;20072;-64
2021/11/11 07:19:34;;;;;;;13.75;4.07;;;0.50;99.90;;;;;;5044645;28;20060;-64
2021/11/11 07:22:01;;;;;;;8.88;3.78;;;0.50;99.90;;;;;;5045854;28;20045;-64
2021/11/11 07:24:27;;;;;;;12.98;4.60;;;0.40;99.90;;;;;;5045334;28;20122;-65
2021/11/11 07:26:53;;;;;;;18.27;5.03;;;0.40;99.90;;;;;;5044656;28;20405;-64
2021/11/11 07:29:21;;;;;;;7.43;4.40;;;0.50;99.90;;;;;;5046338;28;20041;-63
2021/11/11 07:31:51;;;;;;;16.45;5.97;;;0.50;99.90;;;;;;5047477;28;20086;-63
2021/11/11 07:34:17;;;;;;;12.63;4.40;;;0.50;99.90;;;;;;5047059;28;20115;-63
2021/11/11 07:36:44;;;;;;;11.50;4.82;;;0.50;99.90;;;;;;5047974;28;20477;-63
2021/11/11 07:39:10;;;;;;;237.77;113.25;;;0.50;99.90;;;;;;5048324;28;20048;-63
2021/11/11 07:41:37;;;;;;;79.38;33.35;;;0.60;99.90;;;;;;5050993;28;20725;-64
2021/11/11 07:44:04;;;;;;;39.13;15.43;;;0.60;99.90;;;;;;5050097;28;20045;-64
2021/11/11 07:46:32;;;;;;;24.42;10.50;;;0.60;99.90;;;;;;5048900;28;20041;-64
2021/11/11 07:48:58;;;;;;;15.32;6.47;;;0.70;99.90;;;;;;5048570;28;20041;-64
2021/11/11 07:51:23;;;;;;;12.75;6.18;;;0.70;99.90;;;;;;5051669;28;20052;-62
2021/11/11 07:53:49;;;;;;;14.40;7.43;;;0.80;99.90;;;;;;5050535;28;20041;-63
2021/11/11 07:56:15;;;;;;;18.05;7.63;;;0.90;99.90;;;;;;5048716;28;20049;-63
2021/11/11 07:58:41;;;;;;;13.25;6.28;;;1.00;99.90;;;;;;5047703;28;20036;-63
2021/11/11 08:01:06;;;;;;;13.27;6.63;;;1.00;99.90;;;;;;5047460;28;20540;-63
2021/11/11 08:03:32;;;;;;;11.93;6.38;;;1.00;99.90;;;;;;5049772;28;20037;-63
2021/11/11 08:05:58;;;;;;;12.48;5.78;;;1.10;99.90;;;;;;5049717;28;20095;-63
2021/11/11 08:08:23;;;;;;;9.52;5.55;;;1.10;99.90;;;;;;5050448;28;20045;-63
2021/11/11 08:10:50;;;;;;;19.65;5.38;;;1.10;99.90;;;;;;5048156;28;20036;-63
2021/11/11 08:13:16;;;;;;;10.30;4.43;;;1.10;99.90;;;;;;5049540;28;20037;-62
2021/11/11 08:15:42;;;;;;;8.25;4.78;;;1.20;99.90;;;;;;5049026;28;20053;-64
2021/11/11 08:18:08;;;;;;;43.45;20.98;;;1.30;99.90;;;;;;5047166;28;20041;-64
2021/11/11 08:20:35;;;;;;;38.42;15.65;;;1.40;99.90;;;;;;5045943;28;20629;-64
2021/11/11 08:23:00;;;;;;;22.42;9.68;;;1.40;99.90;;;;;;5050124;28;20047;-64
2021/11/11 08:25:26;;;;;;;19.17;8.07;;;1.50;99.90;;;;;;5049752;28;20119;-64
2021/11/11 08:27:53;;;;;;;16.80;6.88;;;1.50;99.90;;;;;;5049847;28;20033;-64
2021/11/11 08:30:20;;;;;;;11.18;5.15;;;1.50;99.90;;;;;;5048621;28;20112;-64
2021/11/11 08:32:47;;;;;;;17.65;5.47;;;1.50;99.90;;;;;;5048151;28;20048;-64
2021/11/11 08:35:13;;;;;;;10.23;4.28;;;1.60;99.90;;;;;;5048939;28;20053;-65
2021/11/11 08:37:40;;;;;;;8.50;4.20;;;1.70;99.90;;;;;;5048638;28;20090;-64
2021/11/11 08:40:07;;;;;;;14.40;4.93;;;1.90;99.90;;;;;;5048336;28;20040;-64
2021/11/11 08:42:33;;;;;;;9.73;4.05;;;1.90;99.90;;;;;;5049685;28;20436;-64
2021/11/11 08:44:59;;;;;;;12.75;3.92;;;2.00;99.90;;;;;;5048760;28;20106;-63
2021/11/11 08:47:26;;;;;;;17.20;5.13;;;2.10;99.90;;;;;;5047456;28;20517;-63
2021/11/11 08:49:54;;;;;;;9.13;4.85;;;2.30;99.90;;;;;;5049431;28;20033;-66
2021/11/11 08:52:20;;;;;;;12.85;4.95;;;2.30;99.90;;;;;;5049622;28;20048;-66
2021/11/11 08:54:53;;;;;;;14.30;5.32;;;2.50;99.90;;;;;;5048962;28;20409;-64
2021/11/11 08:57:19;;;;;;;15.20;5.25;;;2.50;99.90;;;;;;5045506;28;20041;-63
2021/11/11 08:59:51;;;;;;;11.57;5.25;;;2.70;99.90;;;;;;5045053;28;20499;-66
2021/11/11 09:02:17;;;;;;;10.43;5.75;;;2.90;99.90;;;;;;5046313;28;20106;-65
2021/11/11 09:04:43;;;;;;;18.85;6.35;;;3.10;99.90;;;;;;5048144;28;20052;-65
2021/11/11 09:07:09;;;;;;;21.90;7.45;;;3.20;99.90;;;;;;5047091;28;20037;-64
2021/11/11 09:09:35;;;;;;;13.95;6.70;;;3.30;99.90;;;;;;5046103;28;20086;-66
2021/11/11 09:12:00;;;;;;;13.50;6.50;;;3.50;99.90;;;;;;5048370;28;20810;-65
2021/11/11 09:14:26;;;;;;;15.10;7.18;;;3.50;99.90;;;;;;5047607;28;20721;-64
2021/11/11 09:16:51;;;;;;;24.30;11.30;;;3.50;99.90;;;;;;5045962;28;20041;-66
2021/11/11 09:19:18;;;;;;;17.25;7.90;;;3.50;99.90;;;;;;5046536;28;20112;-65
2021/11/11 09:21:44;;;;;;;20.65;9.30;;;3.60;99.90;;;;;;5048818;28;20493;-65
2021/11/11 09:24:10;;;;;;;18.92;9.70;;;3.70;99.90;;;;;;5048384;28;20665;-66
2021/11/11 09:26:37;;;;;;;57.65;26.92;;;3.80;99.90;;;;;;5047681;28;20037;-65
2021/11/11 09:29:04;;;;;;;29.58;11.40;;;4.00;99.90;;;;;;5047415;28;20037;-64
2021/11/11 09:31:30;;;;;;;29.20;13.32;;;4.20;99.90;;;;;;5046652;28;20033;-64
2021/11/11 09:33:56;;;;;;;26.25;11.50;;;4.30;99.90;;;;;;5048097;28;20104;-64
2021/11/11 09:36:22;;;;;;;31.63;11.07;;;4.40;99.90;;;;;;5036941;28;20120;-64
2021/11/11 09:38:49;;;;;;;28.70;11.63;;;4.60;99.90;;;;;;5042990;28;20432;-64
2021/11/11 09:41:17;;;;;;;28.17;13.85;;;4.70;99.90;;;;;;5040788;28;20033;-64
2021/11/11 09:43:43;;;;;;;39.42;16.10;;;4.90;99.90;;;;;;5049078;28;20116;-64
2021/11/11 09:46:12;;;;;;;37.65;15.90;;;5.00;99.90;;;;;;5043574;28;20048;-64
2021/11/11 09:48:39;;;;;;;24.80;12.38;;;5.20;99.90;;;;;;5045337;28;20041;-64
2021/11/11 09:51:09;;;;;;;23.55;10.68;;;5.30;99.90;;;;;;5046652;28;20040;-64
2021/11/11 09:53:43;;;;;;;24.45;11.63;;;5.30;99.90;;;;;;5047190;28;20041;-64
2021/11/11 09:58:54;;;;;;;30.55;13.27;;;5.50;99.90;;;;;;5040414;28;20041;-64
2021/11/11 10:01:22;;;;;;;28.95;13.02;;;5.70;99.90;;;;;;5047085;28;20039;-64
2021/11/11 10:03:50;;;;;;;25.67;12.98;;;5.80;99.90;;;;;;5046751;28;20458;-64
2021/11/11 10:06:21;;;;;;;28.40;13.45;;;5.90;99.90;;;;;;5045266;28;20109;-64
2021/11/11 10:08:53;;;;;;;26.80;13.65;;;6.00;99.90;;;;;;5044622;28;20037;-64
2021/11/11 10:11:32;;;;;;;30.63;14.55;;;6.20;99.90;;;;;;5046573;28;20052;-64
2021/11/11 10:14:10;;;;;;;31.10;14.15;;;6.40;99.90;;;;;;5046978;28;20072;-64
2021/11/11 10:16:45;;;;;;;28.85;12.90;;;6.50;99.90;;;;;;5045277;28;20072;-64
2021/11/11 10:19:11;;;;;;;28.30;13.25;;;6.60;99.90;;;;;;5044926;28;20041;-64
2021/11/11 10:24:25;;;;;;;26.65;14.27;;;6.80;99.90;;;;;;5046740;28;20044;-64
2021/11/11 10:26:56;;;;;;;33.72;12.77;;;6.90;99.90;;;;;;5044797;28;20045;-64
2021/11/11 10:29:33;;;;;;;37.00;14.02;;;7.00;99.90;;;;;;5044688;28;20435;-64
2021/11/11 10:32:22;;;;;;;32.92;15.48;;;7.10;99.90;;;;;;5044093;28;20598;-64
2021/11/11 10:34:57;;;;;;;29.52;12.98;;;7.30;99.90;;;;;;5045399;28;20527;-64
2021/11/11 10:37:27;;;;;;;25.73;13.38;;;7.40;99.90;;;;;;5044404;28;20057;-64
2021/11/11 10:40:00;;;;;;;26.90;12.52;;;7.40;99.90;;;;;;5047274;28;20739;-64
2021/11/11 10:42:28;;;;;;;22.65;11.52;;;7.50;99.90;;;;;;5047364;28;20045;-64
2021/11/11 10:44:56;;;;;;;22.65;12.18;;;7.60;99.90;;;;;;5047537;28;20056;-64
2021/11/11 10:47:25;;;;;;;28.10;13.15;;;7.70;99.90;;;;;;5042845;28;20072;-65
2021/11/11 10:49:51;;;;;;;28.35;12.63;;;7.70;99.90;;;;;;5044059;28;20087;-65
2021/11/11 10:52:41;;;;;;;25.00;12.68;;;7.80;99.90;;;;;;5044097;28;20110;-65
2021/11/11 10:55:09;;;;;;;20.00;11.25;;;7.80;99.90;;;;;;5027116;28;20060;-64
2021/11/11 10:57:45;;;;;;;28.73;12.60;;;7.90;99.90;;;;;;5036357;28;20040;-64
2021/11/11 11:00:13;;;;;;;31.67;14.85;;;7.90;99.90;;;;;;5047109;28;20497;-64
2021/11/11 11:03:04;;;;;;;26.98;13.13;;;7.90;99.90;;;;;;5047093;28;20167;-64
2021/11/11 11:05:55;;;;;;;26.60;11.60;;;8.00;99.90;;;;;;5047562;28;20041;-65
2021/11/11 11:08:23;;;;;;;23.65;11.52;;;8.00;99.90;;;;;;5047070;28;20497;-64
2021/11/11 11:10:52;;;;;;;22.35;12.10;;;8.10;99.90;;;;;;5047129;28;20143;-64
2021/11/11 11:13:34;;;;;;;26.75;11.90;;;8.10;99.90;;;;;;5046681;28;20097;-64
2021/11/11 11:16:05;;;;;;;27.30;12.07;;;8.20;99.90;;;;;;5045493;28;20342;-63
2021/11/11 11:18:41;;;;;;;23.83;11.27;;;8.30;99.90;;;;;;5045825;28;20052;-64
2021/11/11 11:21:11;;;;;;;22.38;10.93;;;8.30;99.90;;;;;;5043883;28;20090;-64
2021/11/11 11:23:51;;;;;;;25.40;11.63;;;8.40;99.90;;;;;;5043741;28;20048;-64
2021/11/11 11:26:23;;;;;;;27.08;12.82;;;8.40;99.90;;;;;;5045359;28;20053;-64
2021/11/11 11:29:11;;;;;;;25.63;10.88;;;8.40;99.90;;;;;;5043691;28;20501;-64
2021/11/11 11:34:43;;;;;;;22.77;10.88;;;8.60;99.90;;;;;;5026963;28;20034;-64
2021/11/11 11:37:18;;;;;;;22.65;10.60;;;8.60;99.90;;;;;;5029265;28;20120;-64
2021/11/11 11:39:53;;;;;;;26.02;11.70;;;8.50;99.90;;;;;;5035671;28;20804;-65
2021/11/11 11:42:25;;;;;;;17.35;8.85;;;8.50;99.90;;;;;;5041032;28;20577;-65
2021/11/11 11:44:55;;;;;;;16.13;7.85;;;8.50;99.90;;;;;;5033528;28;20049;-63
2021/11/11 11:47:38;;;;;;;14.73;7.03;;;8.60;99.90;;;;;;5041027;28;20055;-66
2021/11/11 11:50:13;;;;;;;18.00;8.32;;;8.70;99.90;;;;;;5041621;28;20033;-63
2021/11/11 11:52:44;;;;;;;24.77;10.95;;;8.70;99.90;;;;;;5026741;28;20049;-63
2021/11/11 11:57:59;;;;;;;13.75;7.45;;;8.50;99.90;;;;;;5041971;28;20048;-67
2021/11/11 12:28:48;;;;;;;15.93;6.95;;;9.00;99.90;;;;;;5047047;28;20492;-64
2021/11/11 12:39:51;;;;;;;8.00;3.65;;;8.60;99.90;;;;;;5048191;28;20049;-64
2021/11/11 12:42:33;;;;;;;11.25;3.85;;;8.60;99.90;;;;;;5049371;28;20083;-64
2021/11/11 12:44:59;;;;;;;7.13;3.47;;;8.60;99.90;;;;;;5048711;28;20044;-64
2021/11/11 12:47:33;;;;;;;;;;;8.70;99.90;;;;;;5046208;28;20041;-64
2021/11/11 12:50:36;;;;;;;9.60;3.72;;;8.70;99.90;;;;;;5027328;28;19925;-64
2021/11/11 12:53:13;;;;;;;13.57;4.07;;;8.70;99.90;;;;;;5024530;28;20045;-64
2021/11/11 12:55:41;;;;;;;11.65;5.47;;;8.70;99.90;;;;;;5029485;28;20033;-63
2021/11/11 12:58:11;;;;;;;11.55;4.80;;;8.70;99.90;;;;;;5042855;28;20072;-63
2021/11/11 13:00:49;;;;;;;15.85;4.80;;;8.70;99.90;;;;;;5047888;28;20036;-65
2021/11/11 13:03:17;;;;;;;11.02;4.20;;;8.70;99.90;;;;;;5047403;28;20509;-64
2021/11/11 13:05:56;;;;;;;11.98;4.85;;;8.60;99.90;;;;;;5045645;28;20049;-64
2021/11/11 13:08:52;;;;;;;14.52;5.47;;;8.60;99.90;;;;;;5046079;28;20060;-65
2021/11/11 13:11:27;;;;;;;12.10;5.83;;;8.50;99.90;;;;;;5046517;28;20037;-64
2021/11/11 13:14:08;;;;;;;11.02;5.35;;;8.50;99.90;;;;;;5046432;28;20041;-64
2021/11/11 13:16:34;;;;;;;9.13;4.65;;;8.60;99.90;;;;;;5045927;28;20505;-65
2021/11/11 13:19:04;;;;;;;;;;;8.40;99.90;;;;;;5047370;28;20041;-66
2021/11/11 13:21:44;;;;;;;10.90;5.32;;;8.40;99.90;;;;;;5047596;28;20634;-64
2021/11/11 13:24:50;;;;;;;12.00;5.00;;;8.40;99.90;;;;;;5047551;28;20040;-65
2021/11/11 14:00:10;;;;;;;16.50;7.18;;;7.90;99.90;;;;;;5044699;28;20037;-65
2021/11/11 15:17:40;;;;;;;17.40;6.93;;;7.00;99.90;;;;;;5043330;28;20549;-64
2021/11/11 15:20:47;;;;;;;20.13;6.88;;;7.10;99.90;;;;;;5026308;28;20059;-64
2021/11/11 16:02:57;;;;;;;16.05;5.55;;;7.20;99.90;;;;;;5047652;28;20064;-64
2021/11/11 16:27:00;;;;;;;15.57;5.28;;;7.30;99.90;;;;;;5041155;28;20041;-63
2021/11/11 16:29:26;;;;;;;12.90;4.78;;;7.30;99.90;;;;;;5047982;28;20087;-63
2021/11/11 16:31:54;;;;;;;11.65;5.10;;;7.30;99.90;;;;;;5046861;28;20041;-63
2021/11/11 16:34:20;;;;;;;17.17;6.70;;;7.30;99.90;;;;;;5046163;28;20252;-63
2021/11/11 16:36:46;;;;;;;14.43;5.22;;;7.30;99.90;;;;;;5046716;28;20052;-63
2021/11/11 16:39:14;;;;;;;;;;;7.30;99.90;;;;;;5048451;28;20033;-63
2021/11/11 16:41:40;;;;;;;15.40;5.50;;;7.30;99.90;;;;;;5048542;28;19913;-64
2021/11/11 16:44:07;;;;;;;11.38;5.88;;;7.30;99.90;;;;;;5047689;28;20053;-63
2021/11/11 16:46:34;;;;;;;22.20;7.28;;;7.40;99.90;;;;;;5047383;28;20175;-62
2021/11/11 16:49:00;;;;;;;18.50;7.93;;;7.30;99.90;;;;;;5047315;28;20485;-63
2021/11/11 16:51:26;;;;;;;;;;;7.30;99.90;;;;;;5046446;28;20047;-62
2021/11/11 16:53:51;;;;;;;17.65;7.38;;;7.30;99.90;;;;;;5051547;28;20293;-64
2021/11/11 16:56:17;;;;;;;;;;;7.40;99.90;;;;;;5047332;28;20544;-63
2021/11/11 16:58:43;;;;;;;15.90;7.28;;;7.40;99.90;;;;;;5045447;28;19917;-64